createdAt,value
2022-11-25T00:00:52.245Z,100804.06
2022-11-25T00:03:20.108Z,100801.44
2022-11-25T00:05:47.994Z,100805.81
2022-11-25T00:08:15.788Z,100802.31
2022-11-25T00:10:43.640Z,100800.56
2022-11-25T00:13:11.508Z,100792.66
2022-11-25T00:15:39.273Z,100797.06
2022-11-25T00:18:08.626Z,100802.31
2022-11-25T00:20:38.677Z,100794.44
2022-11-25T00:23:06.460Z,100790.91
2022-11-25T00:25:34.359Z,100776.88
2022-11-25T00:28:02.152Z,100777.78
2022-11-25T00:30:31.727Z,100770.75
2022-11-25T00:32:59.524Z,100764.56
2022-11-25T00:35:29.003Z,100762.78
2022-11-25T00:37:57.049Z,100756.66
2022-11-25T00:40:24.934Z,100762.78
2022-11-25T00:43:09.988Z,100763.69
2022-11-25T00:45:38.397Z,100769.84
2022-11-25T00:48:07.118Z,100765.47
2022-11-25T00:50:36.356Z,100769.00
2022-11-25T00:53:04.165Z,100768.13
2022-11-25T00:55:51.912Z,100777.75
2022-11-25T00:58:19.686Z,100777.78
2022-11-25T01:00:48.049Z,100767.25
2022-11-25T01:03:15.828Z,100766.38
2022-11-25T01:05:44.950Z,100763.75
2022-11-25T01:08:15.462Z,100767.25
2022-11-25T01:10:43.291Z,100770.75
2022-11-25T01:13:11.172Z,100772.53
2022-11-25T01:15:38.980Z,100774.28
2022-11-25T01:18:06.846Z,100770.75
2022-11-25T01:20:34.669Z,100772.53
2022-11-25T01:23:03.871Z,100769.88
2022-11-25T01:25:31.642Z,100769.00
2022-11-25T01:28:00.851Z,100766.38
2022-11-25T01:30:28.662Z,100769.00
2022-11-25T01:32:56.615Z,100766.38
2022-11-25T01:35:24.611Z,100775.16
2022-11-25T01:37:52.515Z,100778.63
2022-11-25T01:40:21.673Z,100772.50
2022-11-25T01:42:49.927Z,100776.03
2022-11-25T01:45:38.344Z,100768.09
2022-11-25T01:48:15.803Z,100773.34
2022-11-25T01:50:44.456Z,100766.31
2022-11-25T01:53:15.030Z,100770.72
2022-11-25T01:55:48.814Z,100762.88
2022-11-25T01:58:22.413Z,100764.63
2022-11-25T02:00:52.094Z,100762.88
2022-11-25T02:03:24.160Z,100763.75
2022-11-25T02:05:57.512Z,100764.63
2022-11-25T02:08:27.489Z,100761.13
2022-11-25T02:10:57.842Z,100766.38
2022-11-25T02:13:26.023Z,100765.50
2022-11-25T02:15:53.839Z,100762.88
2022-11-25T02:18:21.649Z,100761.13
2022-11-25T02:20:49.526Z,100763.72
2022-11-25T02:23:27.057Z,100757.63
2022-11-25T02:25:57.823Z,100761.13
2022-11-25T02:28:28.441Z,100751.47
2022-11-25T02:30:56.374Z,100747.09
2022-11-25T02:33:25.032Z,100750.59
2022-11-25T02:35:56.888Z,100748.84
2022-11-25T02:38:30.586Z,100748.81
2022-11-25T02:41:07.178Z,100758.47
2022-11-25T02:43:35.123Z,100755.84
2022-11-25T02:46:06.928Z,100746.22
2022-11-25T02:49:07.278Z,100745.31
2022-11-25T02:51:27.872Z,100743.56
2022-11-25T02:53:57.004Z,100755.81
2022-11-25T02:56:30.185Z,100747.09
2022-11-25T02:58:58.850Z,100741.81
2022-11-25T03:01:29.740Z,100738.31
2022-11-25T03:03:58.056Z,100750.59
2022-11-25T03:06:28.818Z,100747.94
2022-11-25T03:08:56.788Z,100743.56
2022-11-25T03:11:46.203Z,100741.81
2022-11-25T03:14:16.655Z,100754.13
2022-11-25T03:16:44.804Z,100754.09
2022-11-25T03:19:12.745Z,100748.81
2022-11-25T03:21:40.603Z,100743.56
2022-11-25T03:24:08.615Z,100756.75
2022-11-25T03:26:36.409Z,100757.59
2022-11-25T03:29:04.609Z,100759.38
2022-11-25T03:31:35.228Z,100757.56
2022-11-25T03:34:03.563Z,100748.81
2022-11-25T03:36:32.292Z,100754.94
2022-11-25T03:39:00.155Z,100752.31
2022-11-25T03:41:28.787Z,100740.94
2022-11-25T03:43:57.098Z,100740.03
2022-11-25T03:46:25.029Z,100741.72
2022-11-25T03:48:56.581Z,100740.88
2022-11-25T03:51:25.255Z,100734.72
2022-11-25T03:53:53.972Z,100736.47
2022-11-25T03:56:22.236Z,100733.88
2022-11-25T03:58:51.803Z,100737.34
2022-11-25T04:01:20.918Z,100735.59
2022-11-25T04:03:49.018Z,100732.97
2022-11-25T04:06:20.148Z,100732.97
2022-11-25T04:08:49.901Z,100732.97
2022-11-25T04:11:18.347Z,100733.00
2022-11-25T04:13:49.808Z,100736.44
2022-11-25T04:16:23.895Z,100744.28
2022-11-25T04:18:52.998Z,100745.22
2022-11-25T04:21:22.352Z,100753.97
2022-11-25T04:23:52.103Z,100755.72
2022-11-25T04:26:20.091Z,100746.09
2022-11-25T04:28:47.918Z,100738.28
2022-11-25T04:31:16.000Z,100733.91
2022-11-25T04:33:51.057Z,100735.66
2022-11-25T04:36:22.012Z,100743.59
2022-11-25T04:38:49.936Z,100741.81
2022-11-25T04:41:18.659Z,100740.03
2022-11-25T04:43:46.824Z,100735.69
2022-11-25T04:46:18.441Z,100728.66
2022-11-25T04:48:50.140Z,100728.69
2022-11-25T04:51:18.381Z,100733.94
2022-11-25T04:53:49.635Z,100734.81
2022-11-25T04:56:19.308Z,100741.81
2022-11-25T04:59:13.732Z,100732.16
2022-11-25T05:01:45.770Z,100733.94
2022-11-25T05:04:26.913Z,100730.44
2022-11-25T05:06:55.707Z,100734.78
2022-11-25T05:09:26.987Z,100734.78
2022-11-25T05:12:20.174Z,100728.66
2022-11-25T05:14:49.208Z,100726.03
2022-11-25T05:17:20.099Z,100723.41
2022-11-25T05:19:48.286Z,100732.19
2022-11-25T05:22:18.571Z,100729.53
2022-11-25T05:24:48.796Z,100726.91
2022-11-25T05:27:17.923Z,100720.75
2022-11-25T05:29:51.383Z,100729.50
2022-11-25T05:32:22.527Z,100720.75
2022-11-25T05:34:50.743Z,100726.91
2022-11-25T05:37:24.069Z,100724.28
2022-11-25T05:39:59.441Z,100722.50
2022-11-25T05:42:45.653Z,100734.78
2022-11-25T05:45:13.580Z,100721.59
2022-11-25T05:47:41.747Z,100721.59
2022-11-25T05:50:09.902Z,100713.72
2022-11-25T05:52:37.760Z,100719.88
2022-11-25T05:55:08.690Z,100715.47
2022-11-25T05:57:36.656Z,100713.72
2022-11-25T06:00:09.751Z,100710.22
2022-11-25T06:02:45.836Z,100718.09
2022-11-25T06:05:15.919Z,100722.47
2022-11-25T06:07:43.878Z,100720.69
2022-11-25T06:10:14.011Z,100721.56
2022-11-25T06:12:42.620Z,100726.84
2022-11-25T06:15:11.736Z,100720.63
2022-11-25T06:17:40.634Z,100725.88
2022-11-25T06:20:17.260Z,100732.00
2022-11-25T06:22:46.627Z,100729.38
2022-11-25T06:25:17.146Z,100743.38
2022-11-25T06:28:11.380Z,100734.63
2022-11-25T06:30:32.859Z,100734.56
2022-11-25T06:33:11.816Z,100731.84
2022-11-25T06:35:39.830Z,100731.78
2022-11-25T06:38:08.232Z,100742.31
2022-11-25T06:40:37.327Z,100760.75
2022-11-25T06:43:06.075Z,100752.00
2022-11-25T06:45:34.186Z,100748.44
2022-11-25T06:48:02.035Z,100751.88
2022-11-25T06:50:29.799Z,100751.84
2022-11-25T06:52:57.589Z,100755.25
2022-11-25T06:55:25.370Z,100755.19
2022-11-25T06:58:13.656Z,100758.69
2022-11-25T07:00:42.164Z,100762.28
2022-11-25T07:03:10.075Z,100765.94
2022-11-25T07:05:37.847Z,100757.22
2022-11-25T07:08:05.964Z,100760.66
2022-11-25T07:10:35.602Z,100763.41
2022-11-25T07:13:04.799Z,100755.47
2022-11-25T07:15:32.565Z,100753.66
2022-11-25T07:18:00.291Z,100753.63
2022-11-25T07:20:28.569Z,100762.47
2022-11-25T07:22:56.414Z,100776.53
2022-11-25T07:25:29.358Z,100776.53
2022-11-25T07:27:58.376Z,100774.66
2022-11-25T07:31:21.743Z,100771.22
2022-11-25T07:33:15.333Z,100773.81
2022-11-25T07:35:43.275Z,100777.25
2022-11-25T07:38:10.991Z,100788.69
2022-11-25T07:40:38.740Z,100797.44
2022-11-25T07:43:06.460Z,100795.63
2022-11-25T07:45:35.553Z,100800.88
2022-11-25T07:48:08.533Z,100806.94
2022-11-25T07:50:36.374Z,100804.31
2022-11-25T07:53:04.216Z,100807.75
2022-11-25T07:55:32.112Z,100818.19
2022-11-25T07:58:00.305Z,100810.22
2022-11-25T08:00:28.708Z,100825.16
2022-11-25T08:03:18.167Z,100812.97
2022-11-25T08:05:46.177Z,100824.25
2022-11-25T08:08:14.173Z,100815.47
2022-11-25T08:10:42.039Z,100826.09
2022-11-25T08:13:09.864Z,100830.31
2022-11-25T08:15:37.876Z,100834.75
2022-11-25T08:18:06.029Z,100830.28
2022-11-25T08:20:35.209Z,100826.72
2022-11-25T08:23:03.084Z,100828.41
2022-11-25T08:25:31.743Z,100830.97
2022-11-25T08:28:00.780Z,100833.75
2022-11-25T08:30:28.648Z,100827.28
2022-11-25T08:32:58.075Z,100831.81
2022-11-25T08:35:25.932Z,100833.59
2022-11-25T08:37:55.549Z,100835.13
2022-11-25T08:40:23.516Z,100837.09
2022-11-25T08:42:51.447Z,100841.44
2022-11-25T08:45:19.276Z,100849.31
2022-11-25T08:47:47.665Z,100849.19
2022-11-25T08:50:17.192Z,100844.72
2022-11-25T08:52:45.135Z,100848.19
2022-11-25T08:55:14.813Z,100849.84
2022-11-25T08:57:42.867Z,100850.88
2022-11-25T09:00:12.460Z,100854.34
2022-11-25T09:02:40.303Z,100849.91
2022-11-25T09:05:08.512Z,100859.47
2022-11-25T09:07:36.372Z,100857.66
2022-11-25T09:10:04.751Z,100867.31
2022-11-25T09:12:36.021Z,100875.31
2022-11-25T09:15:03.871Z,100871.81
2022-11-25T09:17:31.697Z,100865.69
2022-11-25T09:19:59.641Z,100877.09
2022-11-25T09:22:30.994Z,100877.28
2022-11-25T09:24:58.978Z,100873.56
2022-11-25T09:27:26.761Z,100849.69
2022-11-25T09:29:55.945Z,100855.06
2022-11-25T09:32:23.795Z,100822.88
2022-11-25T09:34:51.615Z,100841.75
2022-11-25T09:37:19.353Z,100864.63
2022-11-25T09:39:47.248Z,100880.75
2022-11-25T09:42:43.858Z,100897.31
2022-11-25T09:45:38.303Z,100896.84
2022-11-25T09:48:22.960Z,100899.25
2022-11-25T09:51:03.327Z,100892.50
2022-11-25T09:53:43.045Z,100894.69
2022-11-25T09:56:20.740Z,100895.63
2022-11-25T09:58:53.378Z,100899.31
2022-11-25T10:01:26.430Z,100893.41
2022-11-25T10:04:03.561Z,100894.47
2022-11-25T10:06:40.227Z,100902.66
2022-11-25T10:09:15.017Z,100903.38
2022-11-25T10:11:52.511Z,100897.25
2022-11-25T10:14:32.953Z,100893.63
2022-11-25T10:17:11.680Z,100901.31
2022-11-25T10:20:00.210Z,100903.69
2022-11-25T10:22:31.252Z,100904.72
2022-11-25T10:25:02.821Z,100902.28
2022-11-25T10:27:44.002Z,100909.75
2022-11-25T10:30:18.215Z,100898.25
2022-11-25T10:33:02.135Z,100903.66
2022-11-25T10:35:38.029Z,100904.00
2022-11-25T10:38:20.558Z,100902.75
2022-11-25T10:40:53.939Z,100897.72
2022-11-25T10:43:36.044Z,100901.09
2022-11-25T10:46:13.699Z,100910.09
2022-11-25T10:49:03.791Z,100899.03
2022-11-25T10:51:47.183Z,100912.16
2022-11-25T10:54:27.651Z,100908.53
2022-11-25T10:56:58.379Z,100905.19
2022-11-25T10:59:37.758Z,100911.31
2022-11-25T11:02:19.337Z,100920.84
2022-11-25T11:04:56.914Z,100917.22
2022-11-25T11:07:28.195Z,100920.72
2022-11-25T11:10:17.521Z,100918.41
2022-11-25T11:12:56.971Z,100924.53
2022-11-25T11:15:27.011Z,100924.72
2022-11-25T11:17:55.718Z,100931.81
2022-11-25T11:20:27.318Z,100925.94
2022-11-25T11:23:07.032Z,100919.94
2022-11-25T11:25:38.713Z,100929.81
2022-11-25T11:28:27.634Z,100923.16
2022-11-25T11:30:58.431Z,100926.66
2022-11-25T11:33:34.898Z,100924.97
2022-11-25T11:36:16.979Z,100925.66
2022-11-25T11:38:53.617Z,100920.09
2022-11-25T11:41:32.668Z,100924.53
2022-11-25T11:44:10.190Z,100930.84
2022-11-25T11:47:04.974Z,100918.38
2022-11-25T11:50:00.152Z,100930.53
2022-11-25T11:52:41.864Z,100933.25
2022-11-25T11:55:30.427Z,100933.94
2022-11-25T11:58:09.654Z,100943.69
2022-11-25T12:00:48.103Z,100938.09
2022-11-25T12:03:20.566Z,100939.69
2022-11-25T12:05:55.269Z,100936.97
2022-11-25T12:08:32.575Z,100934.53
2022-11-25T12:11:05.756Z,100933.03
2022-11-25T12:13:41.802Z,100937.47
2022-11-25T12:16:14.662Z,100939.13
2022-11-25T12:18:50.030Z,100938.91
2022-11-25T12:21:40.209Z,100930.69
2022-11-25T12:24:22.728Z,100933.09
2022-11-25T12:26:56.860Z,100935.31
2022-11-25T12:29:34.219Z,100931.56
2022-11-25T12:32:28.641Z,100942.22
2022-11-25T12:35:02.331Z,100935.72
2022-11-25T12:37:35.484Z,100943.22
2022-11-25T12:40:14.957Z,100942.94
2022-11-25T12:42:45.865Z,100950.19
2022-11-25T12:45:21.416Z,100943.38
2022-11-25T12:47:49.650Z,100946.88
2022-11-25T12:50:19.173Z,100956.22
2022-11-25T12:52:57.544Z,100963.13
2022-11-25T12:55:27.977Z,100970.72
2022-11-25T12:58:37.410Z,100975.72
2022-11-25T13:01:26.907Z,100973.91
2022-11-25T13:04:28.340Z,100970.69
2022-11-25T13:07:32.022Z,100978.69
2022-11-25T13:10:26.417Z,100980.44
2022-11-25T13:13:19.777Z,100990.69
2022-11-25T13:15:50.020Z,100982.97
2022-11-25T13:18:22.529Z,100986.94
2022-11-25T13:20:52.552Z,100990.28
2022-11-25T13:23:43.392Z,100985.97
2022-11-25T13:26:49.227Z,100995.53
2022-11-25T13:30:02.947Z,100991.38
2022-11-25T13:32:41.258Z,101000.22
2022-11-25T13:35:37.974Z,101005.03
2022-11-25T13:38:31.604Z,101000.88
2022-11-25T13:41:00.442Z,101007.75
2022-11-25T13:43:28.769Z,101008.28
2022-11-25T13:45:57.469Z,101014.81
2022-11-25T13:48:29.070Z,101015.47
2022-11-25T13:51:16.163Z,101014.09
2022-11-25T13:53:52.965Z,101036.63
2022-11-25T13:56:32.533Z,101026.94
2022-11-25T13:59:36.780Z,101036.66
2022-11-25T14:02:45.084Z,101037.59
2022-11-25T14:05:43.019Z,101028.66
2022-11-25T14:08:22.104Z,101045.88
2022-11-25T14:11:01.183Z,101037.63
2022-11-25T14:13:50.607Z,101046.53
2022-11-25T14:16:34.764Z,101038.56
2022-11-25T14:19:50.091Z,101046.94
2022-11-25T14:22:33.088Z,101047.16
2022-11-25T14:25:17.496Z,101048.06
2022-11-25T14:27:47.847Z,101047.72
2022-11-25T14:30:17.484Z,101045.16
2022-11-25T14:32:48.940Z,101048.47
2022-11-25T14:35:19.767Z,101057.06
2022-11-25T14:37:52.265Z,101056.41
2022-11-25T14:40:26.799Z,101065.03
2022-11-25T14:43:03.337Z,101073.44
2022-11-25T14:45:38.180Z,101074.66
2022-11-25T14:48:35.648Z,101083.63
2022-11-25T14:51:09.682Z,101081.00
2022-11-25T14:53:48.248Z,101090.97
2022-11-25T14:56:22.432Z,101098.66
2022-11-25T14:58:52.987Z,101093.44
2022-11-25T15:01:23.570Z,101090.53
2022-11-25T15:04:03.875Z,101100.97
2022-11-25T15:06:35.580Z,101095.13
2022-11-25T15:09:20.312Z,101088.59
2022-11-25T15:11:51.377Z,101098.91
2022-11-25T15:14:26.724Z,101109.69
2022-11-25T15:16:56.181Z,101115.78
2022-11-25T15:19:33.273Z,101116.94
2022-11-25T15:24:55.829Z,101118.50
2022-11-25T15:27:26.199Z,101118.91
2022-11-25T15:29:56.664Z,101129.41
2022-11-25T15:32:27.759Z,101128.84
2022-11-25T15:34:58.706Z,101136.28
2022-11-25T15:37:26.813Z,101141.63
2022-11-25T15:40:28.067Z,101142.00
2022-11-25T15:42:57.843Z,101144.50
2022-11-25T15:45:28.426Z,101150.66
2022-11-25T15:47:57.608Z,101154.41
2022-11-25T15:50:27.916Z,101150.97
2022-11-25T15:53:01.084Z,101153.94
2022-11-25T15:55:33.805Z,101162.47
2022-11-25T15:58:07.879Z,101166.44
2022-11-25T16:00:36.915Z,101170.03
2022-11-25T16:03:05.226Z,101167.25
2022-11-25T16:05:38.144Z,101168.53
2022-11-25T16:08:29.992Z,101180.84
2022-11-25T16:11:00.541Z,101168.53
2022-11-25T16:13:33.318Z,101181.13
2022-11-25T16:16:10.029Z,101189.38
2022-11-25T16:18:41.725Z,101196.97
2022-11-25T16:21:12.747Z,101195.88
2022-11-25T16:23:45.199Z,101199.84
2022-11-25T16:26:21.247Z,101201.41
2022-11-25T16:28:55.805Z,101203.06
2022-11-25T16:31:24.950Z,101201.09
2022-11-25T16:33:55.273Z,101213.72
2022-11-25T16:36:23.135Z,101205.91
2022-11-25T16:38:54.614Z,101215.25
2022-11-25T16:41:24.980Z,101216.06
2022-11-25T16:43:59.316Z,101224.41
2022-11-25T16:46:28.733Z,101223.66
2022-11-25T16:48:56.704Z,101230.75
2022-11-25T16:51:25.855Z,101231.22
2022-11-25T16:53:53.801Z,101240.56
2022-11-25T16:56:25.698Z,101234.94
2022-11-25T16:58:55.815Z,101235.09
2022-11-25T17:01:25.784Z,101240.41
2022-11-25T17:03:53.743Z,101238.41
2022-11-25T17:06:24.516Z,101241.56
2022-11-25T17:08:53.211Z,101252.44
2022-11-25T17:11:25.077Z,101247.97
2022-11-25T17:13:55.431Z,101253.19
2022-11-25T17:16:26.371Z,101252.69
2022-11-25T17:18:56.007Z,101261.25
2022-11-25T17:21:27.032Z,101259.72
2022-11-25T17:23:55.706Z,101253.97
2022-11-25T17:26:27.332Z,101257.59
2022-11-25T17:29:00.340Z,101263.59
2022-11-25T17:31:30.776Z,101272.66
2022-11-25T17:33:58.853Z,101275.50
2022-11-25T17:36:26.759Z,101285.72
2022-11-25T17:38:55.091Z,101280.88
2022-11-25T17:41:26.776Z,101283.22
2022-11-25T17:43:56.742Z,101289.06
2022-11-25T17:46:29.367Z,101293.56
2022-11-25T17:48:57.387Z,101295.56
2022-11-25T17:51:25.226Z,101300.72
2022-11-25T17:53:53.340Z,101304.38
2022-11-25T17:56:30.081Z,101304.00
2022-11-25T17:59:03.733Z,101307.56
2022-11-25T18:01:31.938Z,101318.13
2022-11-25T18:03:59.731Z,101313.63
2022-11-25T18:06:27.572Z,101312.72
2022-11-25T18:08:55.364Z,101317.31
2022-11-25T18:11:23.237Z,101323.59
2022-11-25T18:13:51.599Z,101329.81
2022-11-25T18:16:23.604Z,101331.91
2022-11-25T18:18:51.526Z,101330.69
2022-11-25T18:21:19.952Z,101336.03
2022-11-25T18:23:47.729Z,101338.31
2022-11-25T18:26:15.814Z,101335.84
2022-11-25T18:28:43.789Z,101353.03
2022-11-25T18:31:12.751Z,101353.69
2022-11-25T18:33:41.929Z,101354.44
2022-11-25T18:36:14.086Z,101355.41
2022-11-25T18:38:42.035Z,101353.22
2022-11-25T18:41:20.276Z,101364.28
2022-11-25T18:43:48.348Z,101371.31
2022-11-25T18:46:16.399Z,101375.63
2022-11-25T18:48:45.920Z,101373.63
2022-11-25T18:51:15.778Z,101368.44
2022-11-25T18:53:43.646Z,101381.94
2022-11-25T18:56:17.633Z,101382.88
2022-11-25T18:58:49.713Z,101381.63
2022-11-25T19:01:24.471Z,101391.34
2022-11-25T19:03:55.301Z,101390.16
2022-11-25T19:06:23.935Z,101397.25
2022-11-25T19:08:53.265Z,101400.16
2022-11-25T19:11:29.783Z,101408.13
2022-11-25T19:14:03.899Z,101410.03
2022-11-25T19:16:31.925Z,101411.63
2022-11-25T19:19:01.255Z,101404.25
2022-11-25T19:21:31.053Z,101419.56
2022-11-25T19:23:59.582Z,101421.13
2022-11-25T19:26:31.755Z,101426.91
2022-11-25T19:29:03.716Z,101429.13
2022-11-25T19:31:34.028Z,101429.31
2022-11-25T19:34:03.939Z,101432.66
2022-11-25T19:36:31.806Z,101434.94
2022-11-25T19:39:00.157Z,101445.66
2022-11-25T19:41:28.013Z,101439.88
2022-11-25T19:43:55.857Z,101441.56
2022-11-25T19:46:33.043Z,101450.06
2022-11-25T19:49:06.967Z,101450.81
2022-11-25T19:51:35.827Z,101454.34
2022-11-25T19:54:03.782Z,101461.56
2022-11-25T19:56:31.578Z,101462.06
2022-11-25T19:58:59.387Z,101469.25
2022-11-25T20:01:33.991Z,101474.50
2022-11-25T20:04:03.385Z,101481.56
2022-11-25T20:06:33.572Z,101476.25
2022-11-25T20:09:07.517Z,101480.59
2022-11-25T20:11:36.836Z,101493.63
2022-11-25T20:14:05.340Z,101498.88
2022-11-25T20:16:39.729Z,101499.94
2022-11-25T20:19:08.602Z,101503.22
2022-11-25T20:21:41.512Z,101512.59
2022-11-25T20:24:15.176Z,101512.50
2022-11-25T20:26:45.947Z,101521.28
2022-11-25T20:29:17.395Z,101523.06
2022-11-25T20:31:46.285Z,101531.41
2022-11-25T20:34:14.814Z,101537.59
2022-11-25T20:36:45.371Z,101541.09
2022-11-25T20:39:18.821Z,101548.44
2022-11-25T20:41:50.067Z,101548.25
2022-11-25T20:44:18.527Z,101551.91
2022-11-25T20:46:46.395Z,101550.13
2022-11-25T20:49:22.888Z,101556.31
2022-11-25T20:51:52.128Z,101569.97
2022-11-25T20:54:20.035Z,101573.31
2022-11-25T20:56:47.980Z,101569.22
2022-11-25T20:59:21.613Z,101571.00
2022-11-25T21:01:50.336Z,101572.69
2022-11-25T21:04:18.477Z,101576.31
2022-11-25T21:06:46.491Z,101582.09
2022-11-25T21:09:20.072Z,101582.00
2022-11-25T21:11:48.268Z,101588.31
2022-11-25T21:14:18.055Z,101597.03
2022-11-25T21:16:54.058Z,101590.69
2022-11-25T21:19:22.176Z,101598.84
2022-11-25T21:21:51.769Z,101597.22
2022-11-25T21:24:33.039Z,101598.63
2022-11-25T21:27:08.766Z,101614.44
2022-11-25T21:29:40.728Z,101612.91
2022-11-25T21:32:20.246Z,101614.72
2022-11-25T21:34:48.150Z,101616.94
2022-11-25T21:37:16.491Z,101618.66
2022-11-25T21:39:45.859Z,101617.00
2022-11-25T21:42:20.048Z,101624.13
2022-11-25T21:44:49.888Z,101628.66
2022-11-25T21:47:20.138Z,101637.53
2022-11-25T21:49:48.292Z,101636.97
2022-11-25T21:52:16.166Z,101642.19
2022-11-25T21:54:45.663Z,101640.50
2022-11-25T21:57:17.062Z,101640.59
2022-11-25T21:59:46.694Z,101642.38
2022-11-25T22:02:20.021Z,101644.66
2022-11-25T22:04:48.200Z,101650.09
2022-11-25T22:07:16.002Z,101653.84
2022-11-25T22:09:45.486Z,101660.22
2022-11-25T22:12:27.441Z,101653.50
2022-11-25T22:14:56.065Z,101654.47
2022-11-25T22:17:24.088Z,101667.41
2022-11-25T22:19:52.078Z,101674.31
2022-11-25T22:22:20.158Z,101668.78
2022-11-25T22:24:49.484Z,101675.88
2022-11-25T22:27:22.344Z,101672.28
2022-11-25T22:29:51.483Z,101669.63
2022-11-25T22:32:19.972Z,101677.53
2022-11-25T22:34:50.478Z,101685.41
2022-11-25T22:37:20.171Z,101690.00
2022-11-25T22:39:50.002Z,101690.84
2022-11-25T22:42:25.593Z,101690.09
2022-11-25T22:44:56.509Z,101699.03
2022-11-25T22:47:31.667Z,101693.88
2022-11-25T22:50:01.576Z,101702.69
2022-11-25T22:52:31.986Z,101699.31
2022-11-25T22:55:04.321Z,101709.72
2022-11-25T22:57:32.359Z,101707.94
2022-11-25T23:00:00.190Z,101712.47
2022-11-25T23:02:33.419Z,101718.03
2022-11-25T23:05:01.520Z,101722.13
2022-11-25T23:07:29.565Z,101720.53
2022-11-25T23:09:57.481Z,101718.63
2022-11-25T23:12:26.803Z,101733.78
2022-11-25T23:14:54.621Z,101723.97
2022-11-25T23:17:25.071Z,101730.00
2022-11-25T23:19:53.447Z,101729.28
2022-11-25T23:22:21.526Z,101742.78
2022-11-25T23:24:51.185Z,101745.41
2022-11-25T23:27:19.140Z,101750.72
2022-11-25T23:29:48.305Z,101748.88
2022-11-25T23:32:19.091Z,101754.28
2022-11-25T23:34:47.267Z,101756.25
2022-11-25T23:37:15.576Z,101759.78
2022-11-25T23:39:43.964Z,101765.19
2022-11-25T23:42:17.803Z,101764.97
2022-11-25T23:44:45.829Z,101765.13
2022-11-25T23:47:18.648Z,101768.75
2022-11-25T23:49:49.722Z,101773.97
2022-11-25T23:52:21.037Z,101770.31
2022-11-25T23:54:50.574Z,101771.16
2022-11-25T23:57:20.558Z,101773.81
2022-11-25T23:59:49.190Z,101775.53
